Time;durP1;ratioP1;P1;durP2;ratioP2;P2;SDS_P1;SDS_P2;PMS_P1;PMS_P2;Temp;Humidity;BMP_temperature;BMP_pressure;BME280_temperature;BME280_humidity;BME280_pressure;Samples;Min_cycle;Max_cycle;Signal;HPM_P1;HPM_P2
2023/05/22 00:00:18;;;;;;;24.27;17.38;;;15.80;99.90;;;;;;5013960;28;20180;-73
2023/05/22 00:02:44;;;;;;;22.35;16.35;;;15.70;99.90;;;;;;5015006;28;20183;-73
2023/05/22 00:05:11;;;;;;;22.80;17.83;;;15.70;99.90;;;;;;5014853;28;20214;-73
2023/05/22 00:07:37;;;;;;;25.42;18.92;;;15.70;99.90;;;;;;5014997;28;20192;-73
2023/05/22 00:10:04;;;;;;;22.23;17.40;;;15.70;99.90;;;;;;5015000;28;20183;-72
2023/05/22 00:12:30;;;;;;;22.75;17.67;;;15.70;99.90;;;;;;5013720;28;20176;-73
2023/05/22 00:14:55;;;;;;;25.38;17.80;;;15.70;99.90;;;;;;5013865;28;20548;-73
2023/05/22 00:17:22;;;;;;;25.25;16.27;;;15.70;99.90;;;;;;5014765;28;20203;-73
2023/05/22 00:19:48;;;;;;;27.92;18.15;;;15.60;99.90;;;;;;5014347;28;20656;-73
2023/05/22 00:22:14;;;;;;;27.95;19.17;;;15.60;99.90;;;;;;5014790;28;20215;-72
2023/05/22 00:24:39;;;;;;;28.63;18.75;;;15.50;99.90;;;;;;5014692;28;20199;-73
2023/05/22 00:27:05;;;;;;;22.63;17.50;;;15.50;99.90;;;;;;5014629;28;20253;-73
2023/05/22 00:29:31;;;;;;;23.05;17.80;;;15.50;99.90;;;;;;5013365;28;20180;-73
2023/05/22 00:31:56;;;;;;;24.08;17.73;;;15.50;99.90;;;;;;5014442;28;20180;-73
2023/05/22 00:34:22;;;;;;;21.90;16.90;;;15.50;99.90;;;;;;5013433;28;20187;-72
2023/05/22 00:36:48;;;;;;;22.77;16.52;;;15.40;99.90;;;;;;5014567;28;20208;-72
2023/05/22 00:39:14;;;;;;;21.00;16.52;;;15.40;99.90;;;;;;5014530;28;20183;-72
2023/05/22 00:41:39;;;;;;;29.83;16.80;;;15.40;99.90;;;;;;5014445;28;20176;-72
2023/05/22 00:44:06;;;;;;;26.20;16.00;;;15.30;99.90;;;;;;5013078;28;20187;-72
2023/05/22 00:46:32;;;;;;;19.80;14.70;;;15.10;99.90;;;;;;5013055;28;20203;-72
2023/05/22 00:48:58;;;;;;;21.13;15.10;;;15.00;99.90;;;;;;5014558;28;20172;-72
2023/05/22 00:51:24;;;;;;;28.80;15.10;;;14.80;99.90;;;;;;5014804;28;20182;-72
2023/05/22 00:53:50;;;;;;;29.35;13.80;;;14.60;99.90;;;;;;5014606;28;20172;-72
2023/05/22 00:56:17;;;;;;;18.90;11.98;;;14.60;99.90;;;;;;5014416;28;20656;-72
2023/05/22 00:58:43;;;;;;;23.27;12.98;;;14.50;99.90;;;;;;5014496;28;20175;-72
2023/05/22 01:01:10;;;;;;;21.40;12.35;;;14.50;99.90;;;;;;5013233;28;20556;-72
2023/05/22 01:03:43;;;;;;;14.95;12.18;;;14.50;99.90;;;;;;5014026;28;20176;-72
2023/05/22 01:06:13;;;;;;;16.38;12.70;;;14.50;99.90;;;;;;5013927;28;20302;-72
2023/05/22 01:08:40;;;;;;;13.52;11.82;;;14.50;99.90;;;;;;5012825;28;20175;-72
2023/05/22 01:11:35;;;;;;;15.60;12.35;;;14.50;99.90;;;;;;5014725;28;20176;-72
2023/05/22 01:14:10;;;;;;;16.60;12.00;;;14.50;99.90;;;;;;4985750;28;20219;-72
2023/05/22 01:17:21;;;;;;;24.10;13.60;;;14.50;99.90;;;;;;5013574;28;20254;-72
2023/05/22 01:20:28;;;;;;;17.67;13.38;;;14.40;99.90;;;;;;5013238;28;20681;-72
2023/05/22 01:23:17;;;;;;;17.63;12.80;;;14.40;99.90;;;;;;5014952;28;20178;-72
2023/05/22 01:25:46;;;;;;;17.75;14.07;;;14.40;99.90;;;;;;5012792;28;20211;-72
2023/05/22 01:28:31;;;;;;;21.75;14.15;;;14.40;99.90;;;;;;5013937;28;20179;-72
2023/05/22 01:31:10;;;;;;;17.75;14.15;;;14.50;99.90;;;;;;5013774;28;20184;-72
2023/05/22 01:33:49;;;;;;;27.13;15.07;;;14.50;99.90;;;;;;5013717;28;20274;-72
2023/05/22 01:36:19;;;;;;;20.75;14.35;;;14.50;99.90;;;;;;5012566;28;20203;-72
2023/05/22 01:38:45;;;;;;;24.17;14.30;;;14.50;99.90;;;;;;5014465;28;20565;-72
2023/05/22 01:41:12;;;;;;;26.38;14.23;;;14.50;99.90;;;;;;5012938;28;20191;-73
2023/05/22 01:43:38;;;;;;;21.27;14.30;;;14.50;99.90;;;;;;5014029;28;20250;-73
2023/05/22 01:46:05;;;;;;;21.58;14.57;;;14.50;99.90;;;;;;5017895;28;20222;-72
2023/05/22 01:48:31;;;;;;;19.13;12.45;;;14.40;99.90;;;;;;5016542;28;20203;-73
2023/05/22 01:51:05;;;;;;;20.73;14.00;;;14.30;99.90;;;;;;5017836;28;20178;-73
2023/05/22 01:53:42;;;;;;;15.77;13.05;;;14.40;99.90;;;;;;5018051;28;20160;-73
2023/05/22 01:56:29;;;;;;;17.00;12.77;;;14.40;99.90;;;;;;5016312;28;20199;-73
2023/05/22 01:59:09;;;;;;;18.20;12.95;;;14.40;99.90;;;;;;5017868;28;20164;-72
2023/05/22 02:01:36;;;;;;;17.63;13.68;;;14.50;99.90;;;;;;5018108;28;20168;-73
2023/05/22 02:04:03;;;;;;;18.67;13.52;;;14.50;99.90;;;;;;5017246;28;20180;-72
2023/05/22 02:06:32;;;;;;;17.55;14.15;;;14.50;99.90;;;;;;5016032;28;20282;-73
2023/05/22 02:08:59;;;;;;;19.10;14.68;;;14.50;99.90;;;;;;5015967;28;20182;-73
2023/05/22 02:11:27;;;;;;;18.80;13.82;;;14.50;99.90;;;;;;5015988;28;20180;-73
2023/05/22 02:13:54;;;;;;;24.75;14.95;;;14.50;99.90;;;;;;5017549;28;20639;-73
2023/05/22 02:16:20;;;;;;;15.95;13.52;;;14.50;99.90;;;;;;5017404;28;20322;-72
2023/05/22 02:18:47;;;;;;;18.15;13.52;;;14.40;99.90;;;;;;5017079;28;20253;-73
2023/05/22 02:21:12;;;;;;;17.88;13.25;;;14.50;99.90;;;;;;5017098;28;20180;-73
2023/05/22 02:23:39;;;;;;;20.42;15.30;;;14.60;99.90;;;;;;5017023;28;20229;-73
2023/05/22 02:26:05;;;;;;;19.98;15.60;;;14.60;99.90;;;;;;5015715;28;20297;-73
2023/05/22 02:28:31;;;;;;;29.77;16.10;;;14.60;99.90;;;;;;5017045;28;20218;-73
2023/05/22 02:30:58;;;;;;;43.58;17.77;;;14.50;99.90;;;;;;5017295;28;20172;-72
2023/05/22 02:33:25;;;;;;;29.80;16.88;;;14.40;99.90;;;;;;5015518;28;20191;-73
2023/05/22 02:35:51;;;;;;;22.80;16.00;;;14.30;99.90;;;;;;5016861;28;20267;-72
2023/05/22 02:38:17;;;;;;;22.70;15.73;;;14.30;99.90;;;;;;5016789;28;20210;-73
2023/05/22 02:40:43;;;;;;;32.03;17.77;;;14.30;99.90;;;;;;5016860;28;20175;-73
2023/05/22 02:43:08;;;;;;;33.38;17.67;;;14.20;99.90;;;;;;5016722;28;20179;-73
2023/05/22 02:45:34;;;;;;;67.50;22.13;;;14.10;99.90;;;;;;5015235;28;20707;-72
2023/05/22 02:48:02;;;;;;;49.42;17.00;;;14.00;99.90;;;;;;5016454;28;20176;-73
2023/05/22 02:50:27;;;;;;;23.23;17.10;;;13.90;99.90;;;;;;5016645;28;20168;-73
2023/05/22 02:52:53;;;;;;;59.75;19.10;;;14.00;99.90;;;;;;5016668;28;20211;-73
2023/05/22 02:55:19;;;;;;;24.65;16.08;;;14.00;99.90;;;;;;5016353;28;20727;-72
2023/05/22 02:57:46;;;;;;;26.80;16.00;;;14.10;99.90;;;;;;5016417;28;20592;-71
2023/05/22 03:00:12;;;;;;;30.23;17.23;;;14.10;99.90;;;;;;5015159;28;20168;-71
2023/05/22 03:02:37;;;;;;;27.17;16.55;;;14.10;99.90;;;;;;5015018;28;20242;-71
2023/05/22 03:05:05;;;;;;;25.45;16.92;;;14.20;99.90;;;;;;5015847;28;20208;-71
2023/05/22 03:07:30;;;;;;;25.85;16.33;;;14.20;99.90;;;;;;5016067;28;20203;-71
2023/05/22 03:09:56;;;;;;;26.55;16.85;;;14.20;99.90;;;;;;5014731;28;20545;-71
2023/05/22 03:12:22;;;;;;;24.90;16.20;;;14.30;99.90;;;;;;5014967;28;20191;-71
2023/05/22 03:14:48;;;;;;;20.88;15.73;;;14.30;99.90;;;;;;5014721;28;20184;-71
2023/05/22 03:17:14;;;;;;;32.17;17.58;;;14.30;99.90;;;;;;5015927;28;20219;-71
2023/05/22 03:19:40;;;;;;;21.98;16.60;;;14.30;99.90;;;;;;5016045;28;20164;-71
2023/05/22 03:22:06;;;;;;;21.85;16.55;;;14.30;99.90;;;;;;5015919;28;20262;-71
2023/05/22 03:24:32;;;;;;;24.63;16.70;;;14.30;99.90;;;;;;5015841;28;20613;-71
2023/05/22 03:26:59;;;;;;;25.77;16.45;;;14.30;99.90;;;;;;5015847;28;20192;-71
2023/05/22 03:29:25;;;;;;;23.27;16.50;;;14.30;99.90;;;;;;5015793;28;20172;-71
2023/05/22 03:31:52;;;;;;;22.13;15.05;;;14.20;99.90;;;;;;5014413;28;20610;-71
2023/05/22 03:34:18;;;;;;;18.42;14.23;;;14.20;99.90;;;;;;5014304;28;20176;-71
2023/05/22 03:36:44;;;;;;;24.20;15.45;;;14.20;99.90;;;;;;5015547;28;20246;-70
2023/05/22 03:39:10;;;;;;;25.75;16.50;;;14.30;99.90;;;;;;5015622;28;20171;-71
2023/05/22 03:41:36;;;;;;;21.55;16.45;;;14.20;99.90;;;;;;5014319;28;20168;-71
2023/05/22 03:44:02;;;;;;;24.52;15.98;;;14.20;99.90;;;;;;5015611;28;20184;-71
2023/05/22 03:46:28;;;;;;;22.05;15.98;;;14.20;99.90;;;;;;5015533;28;20196;-70
2023/05/22 03:48:53;;;;;;;23.35;15.63;;;14.30;99.90;;;;;;5015291;28;20195;-70
2023/05/22 03:51:20;;;;;;;23.67;15.15;;;14.30;99.90;;;;;;5015235;28;20280;-70
2023/05/22 03:53:46;;;;;;;25.85;15.23;;;14.30;99.90;;;;;;5013825;28;20191;-70
2023/05/22 03:56:11;;;;;;;25.98;15.32;;;14.30;99.90;;;;;;5013833;28;20199;-70
2023/05/22 03:58:37;;;;;;;20.73;15.02;;;14.30;99.90;;;;;;5015152;28;20167;-70
2023/05/22 04:01:04;;;;;;;22.35;14.15;;;14.30;99.90;;;;;;5013798;28;20206;-70
2023/05/22 04:03:29;;;;;;;21.63;14.25;;;14.20;99.90;;;;;;5013651;28;20176;-70
2023/05/22 04:05:55;;;;;;;22.13;15.85;;;14.30;99.90;;;;;;5013494;28;20212;-70
2023/05/22 04:08:22;;;;;;;44.92;17.27;;;14.30;99.90;;;;;;5014973;28;20178;-70
2023/05/22 04:10:47;;;;;;;21.40;15.18;;;14.30;99.90;;;;;;5014875;28;20168;-70
2023/05/22 04:13:15;;;;;;;19.48;14.38;;;14.30;99.90;;;;;;5014862;28;20250;-70
2023/05/22 04:15:44;;;;;;;19.20;14.20;;;14.30;99.90;;;;;;5014777;28;20203;-70
2023/05/22 04:18:10;;;;;;;20.70;15.38;;;14.40;99.90;;;;;;5014652;28;20704;-70
2023/05/22 04:20:36;;;;;;;21.50;14.88;;;14.40;99.90;;;;;;5014743;28;20629;-70
2023/05/22 04:23:02;;;;;;;19.60;15.18;;;14.40;99.90;;;;;;5014876;28;20180;-70
2023/05/22 04:25:28;;;;;;;18.95;15.25;;;14.40;99.90;;;;;;5014570;28;20294;-70
2023/05/22 04:27:54;;;;;;;17.70;13.95;;;14.40;99.90;;;;;;5014529;28;20191;-70
2023/05/22 04:30:20;;;;;;;16.20;13.95;;;14.40;99.90;;;;;;5014843;28;20610;-71
2023/05/22 04:32:46;;;;;;;26.40;16.13;;;14.50;99.90;;;;;;5013145;28;20271;-71
2023/05/22 04:35:17;;;;;;;32.72;16.73;;;14.50;99.90;;;;;;5014246;28;20187;-71
2023/05/22 04:37:44;;;;;;;18.80;14.35;;;14.40;99.90;;;;;;5014611;28;20204;-71
2023/05/22 04:40:11;;;;;;;37.03;19.05;;;14.40;99.90;;;;;;5014366;28;20176;-71
2023/05/22 04:42:37;;;;;;;20.23;15.63;;;14.40;99.90;;;;;;5013100;28;20656;-71
2023/05/22 04:45:04;;;;;;;32.88;18.55;;;14.40;99.90;;;;;;5014148;28;20195;-71
2023/05/22 04:47:33;;;;;;;21.60;16.85;;;14.40;99.90;;;;;;5012935;28;20307;-71
2023/05/22 04:49:59;;;;;;;26.52;17.85;;;14.30;99.90;;;;;;5014098;28;20191;-71
2023/05/22 04:52:25;;;;;;;23.42;16.50;;;14.30;99.90;;;;;;5014193;28;20302;-71
2023/05/22 04:54:51;;;;;;;18.60;15.68;;;14.40;99.90;;;;;;5014094;28;20181;-71
2023/05/22 04:57:21;;;;;;;30.00;18.83;;;14.40;99.90;;;;;;5014133;28;20199;-71
2023/05/22 04:59:47;;;;;;;34.88;19.45;;;14.40;99.90;;;;;;5012884;28;20722;-71
2023/05/22 05:02:13;;;;;;;27.85;18.13;;;14.40;99.90;;;;;;5014257;28;20186;-71
2023/05/22 05:04:39;;;;;;;29.27;19.27;;;14.30;99.90;;;;;;5012605;28;20605;-71
2023/05/22 05:07:05;;;;;;;31.52;19.92;;;14.30;99.90;;;;;;5013914;28;20563;-70
2023/05/22 05:09:31;;;;;;;20.88;17.58;;;14.30;99.90;;;;;;5013917;28;20182;-71
2023/05/22 05:11:57;;;;;;;38.72;20.02;;;14.20;99.90;;;;;;5014196;28;20256;-71
2023/05/22 05:14:24;;;;;;;43.28;20.35;;;14.20;99.90;;;;;;5013857;28;20592;-71
2023/05/22 05:16:53;;;;;;;42.53;19.73;;;14.20;99.90;;;;;;5013766;28;20274;-71
2023/05/22 05:19:22;;;;;;;29.10;18.73;;;14.20;99.90;;;;;;5012937;28;20168;-71
2023/05/22 05:21:49;;;;;;;29.10;19.30;;;14.20;99.90;;;;;;5013749;28;20172;-71
2023/05/22 05:24:18;;;;;;;23.67;18.13;;;14.20;99.90;;;;;;5012431;28;20180;-71
2023/05/22 05:26:44;;;;;;;25.80;17.65;;;14.30;99.90;;;;;;5013600;28;20192;-71
2023/05/22 05:29:11;;;;;;;25.55;18.92;;;14.40;99.90;;;;;;5013707;28;20592;-71
2023/05/22 05:31:37;;;;;;;34.17;20.77;;;14.50;99.90;;;;;;5013514;28;20182;-71
2023/05/22 05:34:03;;;;;;;22.63;17.25;;;14.50;99.90;;;;;;5012312;28;20171;-71
2023/05/22 05:36:29;;;;;;;27.13;20.15;;;14.50;99.90;;;;;;5012208;28;20229;-71
2023/05/22 05:38:57;;;;;;;26.88;19.63;;;14.70;99.90;;;;;;5012315;28;20194;-71
2023/05/22 05:41:22;;;;;;;55.80;23.33;;;14.80;99.90;;;;;;5013563;28;20649;-71
2023/05/22 05:43:48;;;;;;;30.75;20.95;;;14.80;99.90;;;;;;5014120;28;20191;-71
2023/05/22 05:46:14;;;;;;;32.42;20.55;;;14.80;99.90;;;;;;5012134;28;20699;-71
2023/05/22 05:48:40;;;;;;;29.65;21.45;;;14.90;99.90;;;;;;5013814;28;20180;-71
2023/05/22 05:51:06;;;;;;;29.65;20.67;;;14.90;99.90;;;;;;5014080;28;20164;-71
2023/05/22 05:53:31;;;;;;;48.08;23.58;;;14.90;99.90;;;;;;5012127;28;20263;-71
2023/05/22 05:55:57;;;;;;;50.42;21.95;;;14.90;99.90;;;;;;5011989;28;20692;-71
2023/05/22 05:58:23;;;;;;;51.92;21.52;;;14.90;99.90;;;;;;5013421;28;20241;-71
2023/05/22 06:00:48;;;;;;;37.08;21.42;;;14.90;99.90;;;;;;5012255;28;20226;-71
2023/05/22 06:03:14;;;;;;;33.70;22.33;;;15.00;99.90;;;;;;5011969;28;20183;-71
2023/05/22 06:05:40;;;;;;;29.33;19.85;;;15.10;99.90;;;;;;5011830;28;20628;-71
2023/05/22 06:08:07;;;;;;;33.80;21.90;;;15.20;99.90;;;;;;5011990;28;20699;-71
2023/05/22 06:10:33;;;;;;;28.75;21.42;;;15.20;99.90;;;;;;5011961;28;20679;-71
2023/05/22 06:12:58;;;;;;;29.50;20.50;;;15.30;99.90;;;;;;5013178;28;20175;-71
2023/05/22 06:15:24;;;;;;;32.10;22.13;;;15.40;99.90;;;;;;5013203;28;20172;-71
2023/05/22 06:17:50;;;;;;;35.22;23.52;;;15.40;99.90;;;;;;5013118;28;20657;-71
2023/05/22 06:20:15;;;;;;;33.60;23.98;;;15.50;99.90;;;;;;5012990;28;20218;-71
2023/05/22 06:22:41;;;;;;;31.75;22.77;;;15.60;99.90;;;;;;5014139;28;20202;-71
2023/05/22 06:25:08;;;;;;;29.70;22.35;;;15.70;99.90;;;;;;5013264;28;20687;-71
2023/05/22 06:27:34;;;;;;;33.20;23.45;;;15.70;99.90;;;;;;5013041;28;20196;-71
2023/05/22 06:30:00;;;;;;;25.55;19.52;;;15.80;99.90;;;;;;5014140;28;20179;-71
2023/05/22 06:32:26;;;;;;;27.55;20.63;;;15.80;99.90;;;;;;5015390;28;20194;-71
2023/05/22 06:34:52;;;;;;;27.88;21.25;;;15.90;99.90;;;;;;5015252;28;20201;-71
2023/05/22 06:37:17;;;;;;;33.42;23.25;;;15.90;99.90;;;;;;5016552;28;20591;-71
2023/05/22 06:39:43;;;;;;;36.03;23.90;;;15.90;99.90;;;;;;5016661;28;20188;-71
2023/05/22 06:42:09;;;;;;;28.90;21.40;;;15.80;99.90;;;;;;5015259;28;20184;-72
2023/05/22 06:44:35;;;;;;;33.00;23.60;;;15.80;99.90;;;;;;5015246;28;20214;-72
2023/05/22 06:47:01;;;;;;;36.63;26.38;;;15.90;99.90;;;;;;5015247;28;20286;-71
2023/05/22 06:49:26;;;;;;;37.75;26.08;;;16.00;99.90;;;;;;5016319;28;20520;-72
2023/05/22 06:51:52;;;;;;;38.67;26.50;;;16.00;99.90;;;;;;5015099;28;20180;-71
2023/05/22 06:54:20;;;;;;;35.92;24.40;;;16.10;99.90;;;;;;5016387;28;20246;-71
2023/05/22 06:56:45;;;;;;;46.85;29.73;;;16.20;99.90;;;;;;5016353;28;20191;-71
2023/05/22 06:59:11;;;;;;;53.38;32.30;;;16.20;99.90;;;;;;5015165;28;20222;-71
2023/05/22 07:01:37;;;;;;;50.63;31.10;;;16.30;99.90;;;;;;5016319;28;20172;-72
2023/05/22 07:04:07;;;;;;;42.75;29.00;;;16.40;99.90;;;;;;5016579;28;20171;-71
2023/05/22 07:06:37;;;;;;;44.63;30.23;;;16.50;99.90;;;;;;5016052;28;20264;-71
2023/05/22 07:09:07;;;;;;;44.03;31.08;;;16.50;99.90;;;;;;5016244;28;20727;-71
2023/05/22 07:11:34;;;;;;;45.10;30.85;;;16.50;99.90;;;;;;5016816;28;20153;-71
2023/05/22 07:14:03;;;;;;;51.30;32.67;;;16.60;99.90;;;;;;5015728;28;20179;-70
2023/05/22 07:16:30;;;;;;;47.97;31.42;;;16.70;99.90;;;;;;5017167;28;20200;-71
2023/05/22 07:18:56;;;;;;;54.80;34.38;;;16.70;99.90;;;;;;5016431;28;20751;-71
2023/05/22 07:21:24;;;;;;;51.15;33.72;;;16.90;99.90;;;;;;5016533;28;20184;-71
2023/05/22 07:23:51;;;;;;;63.63;41.47;;;17.10;99.90;;;;;;5014757;28;20227;-71
2023/05/22 07:26:18;;;;;;;70.80;45.85;;;17.30;99.90;;;;;;5015729;28;20208;-72
2023/05/22 07:28:43;;;;;;;75.15;47.88;;;17.40;99.90;;;;;;5016077;28;20259;-71
2023/05/22 07:31:09;;;;;;;76.88;46.92;;;17.30;99.90;;;;;;5015851;28;20260;-71
2023/05/22 07:33:35;;;;;;;81.50;51.15;;;17.20;99.90;;;;;;5015582;28;20192;-71
2023/05/22 07:36:00;;;;;;;86.53;48.88;;;17.30;99.90;;;;;;5015675;28;20283;-71
2023/05/22 07:38:26;;;;;;;68.22;43.78;;;17.40;99.90;;;;;;5014335;28;20577;-71
2023/05/22 07:40:52;;;;;;;77.85;47.53;;;17.40;99.90;;;;;;5014374;28;20263;-71
2023/05/22 07:43:17;;;;;;;76.07;46.85;;;17.50;99.90;;;;;;5014968;28;20180;-71
2023/05/22 07:45:43;;;;;;;71.45;42.90;;;17.30;99.90;;;;;;5015887;28;20202;-71
2023/05/22 07:48:10;;;;;;;62.85;41.33;;;17.40;99.90;;;;;;5014136;28;20180;-71
2023/05/22 07:50:36;;;;;;;62.33;40.05;;;17.40;99.90;;;;;;5015327;28;20182;-71
2023/05/22 07:53:03;;;;;;;61.10;40.00;;;17.60;99.90;;;;;;5015377;28;20168;-71
2023/05/22 07:55:29;;;;;;;62.10;40.88;;;17.70;99.90;;;;;;5014011;28;20180;-71
2023/05/22 07:57:55;;;;;;;63.45;40.85;;;17.80;99.90;;;;;;5015154;28;20202;-71
2023/05/22 08:00:21;;;;;;;63.72;40.22;;;17.80;99.90;;;;;;5013898;28;20656;-71
2023/05/22 08:02:47;;;;;;;58.72;41.08;;;17.90;99.90;;;;;;5015405;28;20220;-71
2023/05/22 08:05:12;;;;;;;58.50;38.45;;;18.00;99.90;;;;;;5015108;28;20234;-71
2023/05/22 08:07:38;;;;;;;48.25;34.97;;;18.10;99.90;;;;;;5015624;28;20188;-71
2023/05/22 08:10:13;;;;;;;51.95;36.17;;;18.00;99.90;;;;;;5015557;28;20226;-71
2023/05/22 08:12:39;;;;;;;51.15;36.15;;;18.10;99.90;;;;;;5013836;28;20221;-71
2023/05/22 08:15:05;;;;;;;48.42;34.40;;;18.10;99.90;;;;;;5013891;28;20187;-71
2023/05/22 08:17:31;;;;;;;52.42;34.80;;;18.20;99.90;;;;;;5015089;28;20200;-71
2023/05/22 08:19:57;;;;;;;45.33;33.60;;;18.40;99.90;;;;;;5014837;28;20535;-71
2023/05/22 08:22:23;;;;;;;53.25;35.45;;;18.60;99.90;;;;;;5014953;28;20184;-71
2023/05/22 08:24:49;;;;;;;48.05;35.60;;;18.70;99.90;;;;;;5014981;28;20199;-71
2023/05/22 08:27:15;;;;;;;49.85;34.03;;;19.00;99.90;;;;;;5014905;28;20754;-71
2023/05/22 08:29:41;;;;;;;46.70;33.75;;;18.90;99.90;;;;;;5013361;28;20211;-72
2023/05/22 08:32:07;;;;;;;43.25;32.35;;;18.90;99.90;;;;;;5014467;28;20196;-72
2023/05/22 08:34:33;;;;;;;46.88;31.02;;;19.00;99.90;;;;;;5013123;28;20184;-71
2023/05/22 08:36:58;;;;;;;42.30;30.33;;;19.10;99.90;;;;;;5014445;28;20594;-71
2023/05/22 08:39:24;;;;;;;42.38;30.20;;;19.50;99.90;;;;;;5014755;28;20168;-71
2023/05/22 08:41:50;;;;;;;36.92;28.52;;;19.90;99.90;;;;;;5013214;28;20582;-71
2023/05/22 08:44:18;;;;;;;32.42;25.48;;;20.30;99.90;;;;;;5014413;28;20171;-71
2023/05/22 08:46:45;;;;;;;33.65;24.20;;;20.60;99.90;;;;;;5014400;28;20270;-71
2023/05/22 08:49:12;;;;;;;28.92;22.65;;;21.10;99.90;;;;;;5014366;28;20196;-72
2023/05/22 08:51:39;;;;;;;30.83;22.55;;;21.50;99.90;;;;;;5014276;28;20187;-71
2023/05/22 08:54:06;;;;;;;30.33;22.00;;;21.50;99.90;;;;;;5014099;28;20168;-71
2023/05/22 08:56:33;;;;;;;25.95;20.27;;;21.50;99.90;;;;;;5012838;28;20227;-71
2023/05/22 08:59:02;;;;;;;25.20;19.15;;;21.50;99.90;;;;;;5014184;28;20676;-71
2023/05/22 09:01:29;;;;;;;25.90;20.60;;;21.60;99.90;;;;;;5014246;28;20229;-71
2023/05/22 09:04:00;;;;;;;26.45;21.00;;;21.80;99.90;;;;;;5013925;28;20171;-71
2023/05/22 09:06:27;;;;;;;27.40;21.38;;;21.90;99.90;;;;;;5012509;28;20212;-71
2023/05/22 09:08:54;;;;;;;26.95;21.70;;;22.00;99.90;;;;;;5012673;28;20555;-71
2023/05/22 09:11:21;;;;;;;27.45;21.00;;;21.90;99.90;;;;;;5012677;28;20263;-71
2023/05/22 09:13:47;;;;;;;29.70;21.98;;;21.90;99.90;;;;;;5012673;28;20640;-71
2023/05/22 09:16:14;;;;;;;32.05;23.17;;;21.80;99.90;;;;;;5014257;28;20192;-71
2023/05/22 09:18:41;;;;;;;28.15;22.85;;;21.70;99.90;;;;;;5013977;28;20255;-71
2023/05/22 09:21:08;;;;;;;30.13;22.52;;;21.70;99.90;;;;;;5013798;28;20179;-71
2023/05/22 09:23:34;;;;;;;27.13;22.27;;;22.00;99.90;;;;;;5014045;28;20536;-71
2023/05/22 09:26:01;;;;;;;29.58;21.77;;;22.30;99.90;;;;;;5013600;28;20262;-71
2023/05/22 09:28:35;;;;;;;31.10;22.55;;;22.50;99.90;;;;;;5013705;28;20513;-71
2023/05/22 09:31:02;;;;;;;27.25;21.25;;;22.90;99.90;;;;;;5014210;28;20179;-71
2023/05/22 09:33:29;;;;;;;25.48;20.60;;;23.00;99.90;;;;;;5012281;28;20188;-71
2023/05/22 09:35:55;;;;;;;29.15;19.63;;;23.00;99.90;;;;;;5013502;28;20195;-71
2023/05/22 09:38:23;;;;;;;27.58;19.67;;;22.90;99.90;;;;;;5013604;28;20186;-71
2023/05/22 09:40:53;;;;;;;28.10;20.20;;;23.10;99.90;;;;;;5013597;28;20683;-71
2023/05/22 09:43:21;;;;;;;26.77;19.70;;;23.20;99.90;;;;;;5013531;28;20225;-71
2023/05/22 09:45:47;;;;;;;24.88;19.90;;;23.20;99.90;;;;;;5013315;28;20724;-71
2023/05/22 09:48:16;;;;;;;26.83;20.02;;;23.30;99.90;;;;;;5012208;28;20188;-71
2023/05/22 09:50:47;;;;;;;27.13;20.00;;;23.30;99.90;;;;;;5013381;28;20178;-71
2023/05/22 09:53:15;;;;;;;28.95;19.20;;;23.40;99.90;;;;;;5013495;28;20160;-71
2023/05/22 09:55:42;;;;;;;24.70;18.90;;;23.50;99.90;;;;;;5013350;28;20193;-71
2023/05/22 09:58:12;;;;;;;24.55;20.13;;;23.60;99.90;;;;;;5012115;28;20179;-71
2023/05/22 10:00:39;;;;;;;24.50;20.30;;;23.70;99.90;;;;;;5012441;28;20183;-71
2023/05/22 10:03:11;;;;;;;24.60;18.95;;;23.60;99.90;;;;;;5013977;28;20538;-71
2023/05/22 10:05:42;;;;;;;24.42;19.20;;;23.60;99.90;;;;;;5014719;28;20222;-71
2023/05/22 10:08:14;;;;;;;27.60;20.60;;;23.80;99.90;;;;;;5018010;28;20531;-71
2023/05/22 10:10:42;;;;;;;24.73;18.88;;;23.90;99.90;;;;;;5017525;28;20199;-71
2023/05/22 10:13:08;;;;;;;26.20;20.55;;;23.90;99.90;;;;;;5016105;28;20180;-71
2023/05/22 10:15:34;;;;;;;24.45;19.02;;;23.90;78.00;;;;;;5017180;28;20206;-71
2023/05/22 10:18:00;;;;;;;24.92;18.50;;;23.80;27.50;;;;;;5017086;28;20222;-71
2023/05/22 10:20:27;;;;;;;26.55;20.42;;;23.80;76.10;;;;;;5017106;28;20196;-71
2023/05/22 10:22:54;;;;;;;31.63;20.85;;;23.90;57.90;;;;;;5017268;28;20176;-71
2023/05/22 10:25:21;;;;;;;26.85;20.80;;;23.90;1.00;;;;;;5017201;28;20191;-71
2023/05/22 10:27:47;;;;;;;27.52;20.50;;;24.10;1.00;;;;;;5017104;28;20230;-71
2023/05/22 10:30:45;;;;;;;24.55;19.55;;;23.80;1.00;;;;;;5017236;28;20168;-71
2023/05/22 10:33:16;;;;;;;24.17;20.23;;;23.80;13.60;;;;;;5016850;28;20191;-71
2023/05/22 10:36:00;;;;;;;28.55;19.77;;;23.60;1.00;;;;;;5015297;28;20194;-71
2023/05/22 10:39:03;;;;;;;29.02;19.83;;;23.60;19.60;;;;;;5015588;28;20175;-71
2023/05/22 10:41:30;;;;;;;24.30;19.85;;;23.50;40.00;;;;;;5015813;28;20183;-71
2023/05/22 10:43:56;;;;;;;25.77;18.08;;;23.50;1.00;;;;;;5015442;28;20552;-71
2023/05/22 10:46:22;;;;;;;26.60;20.35;;;23.50;38.60;;;;;;5016783;28;20203;-71
2023/05/22 10:48:51;;;;;;;25.38;19.27;;;23.50;1.00;;;;;;5015246;28;20230;-71
2023/05/22 10:51:21;;;;;;;22.00;18.23;;;23.70;1.00;;;;;;5016852;28;20176;-71
2023/05/22 10:53:52;;;;;;;25.30;19.30;;;23.90;1.00;;;;;;5015230;28;20175;-71
2023/05/22 10:56:18;;;;;;;24.95;18.75;;;24.30;1.00;;;;;;5016434;28;20200;-71
2023/05/22 10:58:55;;;;;;;25.83;18.85;;;24.40;1.00;;;;;;5016466;28;20517;-71
2023/05/22 11:01:24;;;;;;;22.02;18.73;;;24.40;99.90;;;;;;5015256;28;20176;-72
2023/05/22 11:04:10;;;;;;;23.83;19.55;;;24.50;1.00;;;;;;5015039;28;20266;-72
2023/05/22 11:06:46;;;;;;;26.23;20.00;;;24.60;99.90;;;;;;5011703;28;20204;-70
2023/05/22 11:09:28;;;;;;;23.50;17.90;;;24.90;99.90;;;;;;5016263;28;20187;-69
2023/05/22 11:12:15;;;;;;;25.75;20.00;;;25.00;99.90;;;;;;5016500;28;20226;-69
2023/05/22 11:14:41;;;;;;;23.98;20.15;;;25.00;99.90;;;;;;5014756;28;20179;-69
2023/05/22 11:17:07;;;;;;;26.35;20.70;;;25.00;1.00;;;;;;5014731;28;20203;-69
2023/05/22 11:19:33;;;;;;;25.50;19.73;;;25.10;99.90;;;;;;5014713;28;20591;-69
2023/05/22 11:22:00;;;;;;;26.23;20.35;;;25.20;99.90;;;;;;5015918;28;20230;-69
2023/05/22 11:24:32;;;;;;;21.45;18.73;;;25.40;99.90;;;;;;5015798;28;20203;-69
2023/05/22 11:27:06;;;;;;;27.05;19.08;;;25.20;1.00;;;;;;5015792;28;20615;-69
2023/05/22 11:29:32;;;;;;;21.85;18.17;;;25.00;99.90;;;;;;5016034;28;20183;-69
2023/05/22 11:31:58;;;;;;;24.38;18.20;;;25.00;8.80;;;;;;5015906;28;20555;-70
2023/05/22 11:34:25;;;;;;;24.83;18.33;;;25.10;99.90;;;;;;5014401;28;20183;-70
2023/05/22 11:37:00;;;;;;;21.83;18.13;;;25.20;99.90;;;;;;5015539;28;20210;-69
2023/05/22 11:39:26;;;;;;;23.75;17.85;;;25.30;1.00;;;;;;5015627;28;20163;-69
2023/05/22 11:41:52;;;;;;;23.60;17.95;;;25.50;99.00;;;;;;5014351;28;20183;-69
2023/05/22 11:44:18;;;;;;;21.27;18.25;;;25.70;99.90;;;;;;5014290;28;20172;-69
2023/05/22 11:46:44;;;;;;;24.83;18.05;;;25.90;99.90;;;;;;5015339;28;20557;-69
2023/05/22 11:49:13;;;;;;;18.92;16.88;;;25.90;99.90;;;;;;5014113;28;20176;-70
2023/05/22 11:51:39;;;;;;;20.77;17.13;;;26.00;99.90;;;;;;5015406;28;20247;-69
2023/05/22 11:54:06;;;;;;;23.25;18.90;;;26.10;99.90;;;;;;5015415;28;20251;-69
2023/05/22 11:56:32;;;;;;;22.70;17.95;;;26.00;1.00;;;;;;5015511;28;20600;-69
2023/05/22 11:58:58;;;;;;;24.45;19.58;;;25.60;75.10;;;;;;5015541;28;20199;-70
2023/05/22 12:01:24;;;;;;;23.90;18.52;;;25.40;99.90;;;;;;5014146;28;20260;-69
2023/05/22 12:03:49;;;;;;;21.30;17.60;;;25.20;1.00;;;;;;5013766;28;20183;-70
2023/05/22 12:06:16;;;;;;;23.83;18.77;;;25.40;99.90;;;;;;5014941;28;20216;-69
2023/05/22 12:08:43;;;;;;;23.80;19.17;;;25.60;99.90;;;;;;5013798;28;20554;-69
2023/05/22 12:11:10;;;;;;;21.95;18.23;;;25.60;99.90;;;;;;5015310;28;20630;-69
2023/05/22 12:13:36;;;;;;;24.10;19.65;;;25.70;99.90;;;;;;5015219;28;20621;-69
2023/05/22 12:16:22;;;;;;;22.58;18.92;;;26.00;99.90;;;;;;5014948;28;20223;-69
2023/05/22 12:18:52;;;;;;;26.02;19.40;;;26.20;99.90;;;;;;5013546;28;20270;-69
2023/05/22 12:21:19;;;;;;;21.75;18.70;;;26.10;99.90;;;;;;5015603;28;20172;-69
2023/05/22 12:23:49;;;;;;;25.02;20.65;;;26.00;99.90;;;;;;5015343;28;20509;-69
2023/05/22 12:26:15;;;;;;;26.05;22.08;;;25.70;99.90;;;;;;5014608;28;20214;-69
2023/05/22 12:28:41;;;;;;;24.38;21.50;;;25.50;99.90;;;;;;5014260;28;20168;-69
2023/05/22 12:31:07;;;;;;;25.20;22.58;;;25.30;99.90;;;;;;5013597;28;20175;-69